Time;durP1;ratioP1;P1;durP2;ratioP2;P2;SDS_P1;SDS_P2;PMS_P1;PMS_P2;Temp;Humidity;BMP_temperature;BMP_pressure;BME280_temperature;BME280_humidity;BME280_pressure;Samples;Min_cycle;Max_cycle;Signal;HPM_P1;HPM_P2
2024/04/18 00:00:32;;;;;;;4.40;2.60;;;;;;;8.30;100.00;98780.80;106096;1257;74342;-52
2024/04/18 00:02:59;;;;;;;3.90;3.40;;;;;;;8.27;100.00;98783.11;105833;1261;65685;-54
2024/04/18 00:05:32;;;;;;;4.20;2.80;;;;;;;8.24;100.00;98775.23;105822;1257;73044;-53
2024/04/18 00:07:59;;;;;;;3.20;2.90;;;;;;;8.26;100.00;98774.27;105819;1260;61110;-56
2024/04/18 00:10:25;;;;;;;4.30;2.90;;;;;;;8.26;100.00;98773.84;105852;1257;61371;-53
2024/04/18 00:12:52;;;;;;;5.30;3.40;;;;;;;8.27;100.00;98772.73;105917;1260;75188;-54
2024/04/18 00:15:22;;;;;;;4.40;3.90;;;;;;;8.27;100.00;98770.05;105812;1260;67519;-53
2024/04/18 00:17:55;;;;;;;3.40;3.20;;;;;;;8.25;100.00;98772.66;105803;1273;73305;-54
2024/04/18 00:20:23;;;;;;;2.60;2.40;;;;;;;8.24;100.00;98774.52;105996;1257;61831;-55
2024/04/18 00:22:50;;;;;;;8.10;2.00;;;;;;;8.23;100.00;98773.86;106102;1260;62113;-52
2024/04/18 00:25:26;;;;;;;2.30;1.60;;;;;;;8.25;100.00;98774.31;105875;1261;75039;-55
2024/04/18 00:27:53;;;;;;;3.10;1.50;;;;;;;8.28;100.00;98776.99;106098;1257;67159;-54
2024/04/18 00:30:39;;;;;;;3.20;2.90;;;;;;;8.32;100.00;98784.86;105978;1261;74057;-57
2024/04/18 00:33:06;;;;;;;3.30;2.60;;;;;;;8.35;100.00;98783.95;106479;1258;61419;-54
2024/04/18 00:35:37;;;;;;;4.20;3.20;;;;;;;8.39;100.00;98784.66;105939;1260;61410;-52
2024/04/18 00:38:13;;;;;;;3.90;3.10;;;;;;;8.42;100.00;98780.02;105977;1260;74510;-52
2024/04/18 00:40:41;;;;;;;7.90;3.80;;;;;;;8.43;100.00;98784.44;105933;1257;66763;-54
2024/04/18 00:43:20;;;;;;;5.40;3.20;;;;;;;8.45;100.00;98787.17;105875;1258;71830;-52
2024/04/18 00:45:53;;;;;;;3.10;2.90;;;;;;;8.47;100.00;98795.98;105900;1257;61877;-53
2024/04/18 00:48:22;;;;;;;5.20;2.90;;;;;;;8.50;100.00;98794.23;106737;1258;61360;-54
2024/04/18 00:50:50;;;;;;;4.20;2.60;;;;;;;8.52;100.00;98801.27;105747;1258;75136;-53
2024/04/18 00:53:20;;;;;;;3.90;2.50;;;;;;;8.54;100.00;98803.10;105689;1267;68711;-54
2024/04/18 00:55:49;;;;;;;4.10;1.80;;;;;;;8.58;100.00;98801.14;105771;1263;73151;-54
2024/04/18 00:58:16;;;;;;;2.60;2.40;;;;;;;8.60;100.00;98802.96;106143;1260;61240;-55
2024/04/18 01:00:45;;;;;;;3.00;2.80;;;;;;;8.63;100.00;98805.67;105750;1258;61361;-55
2024/04/18 01:03:31;;;;;;;6.20;2.80;;;;;;;8.64;100.00;98809.73;105768;1257;74547;-54
2024/04/18 01:06:06;;;;;;;6.60;3.50;;;;;;;8.63;100.00;98810.31;105799;1260;67583;-55
2024/04/18 01:09:11;;;;;;;2.90;2.20;;;;;;;8.60;100.00;98812.06;106048;1257;77136;-54
2024/04/18 01:14:37;;;;;;;1.80;1.70;;;;;;;8.58;100.00;98814.89;102892;1290;603912;-55
2024/04/18 01:17:04;;;;;;;6.40;2.10;;;;;;;8.56;100.00;98820.52;105455;1267;59746;-55
2024/04/18 01:19:31;;;;;;;6.00;2.30;;;;;;;8.59;100.00;98819.14;105497;1270;60630;-55
2024/04/18 01:21:58;;;;;;;4.20;1.90;;;;;;;8.62;100.00;98814.29;105463;1267;71739;-54
2024/04/18 01:24:31;;;;;;;2.50;1.90;;;;;;;8.65;100.00;98811.27;106369;1264;66956;-54
2024/04/18 01:26:58;;;;;;;2.40;2.20;;;;;;;8.66;100.00;98809.26;107373;1263;72595;-54
2024/04/18 01:29:40;;;;;;;3.50;2.20;;;;;;;8.66;100.00;98806.40;105480;1261;60734;-54
2024/04/18 01:32:29;;;;;;;6.90;2.10;;;;;;;8.63;100.00;98810.30;105593;1266;59627;-53
2024/04/18 01:34:56;;;;;;;2.70;2.40;;;;;;;8.61;100.00;98814.35;105854;1263;73323;-53
2024/04/18 01:37:23;;;;;;;2.20;1.60;;;;;;;8.59;100.00;98816.09;105783;1263;67446;-53
2024/04/18 01:39:50;;;;;;;6.20;1.60;;;;;;;8.56;100.00;98816.58;105804;1264;73162;-53
2024/04/18 01:42:17;;;;;;;1.70;1.50;;;;;;;8.56;100.00;98816.80;105806;1263;65049;-55
2024/04/18 01:44:44;;;;;;;1.50;1.40;;;;;;;8.57;100.00;98815.66;105826;1260;61489;-53
2024/04/18 01:47:32;;;;;;;2.60;1.70;;;;;;;8.59;100.00;98806.81;106120;1262;72579;-55
2024/04/18 01:50:06;;;;;;;2.30;1.60;;;;;;;8.60;100.00;98804.02;105823;1263;67885;-55
2024/04/18 01:52:34;;;;;;;4.40;2.10;;;;;;;8.60;100.00;98799.20;105963;1258;75034;-56
2024/04/18 01:55:04;;;;;;;3.80;2.90;;;;;;;8.58;100.00;98794.34;105937;1263;60549;-53
2024/04/18 01:57:37;;;;;;;4.90;2.70;;;;;;;8.54;100.00;98792.55;105919;1258;61336;-52
2024/04/18 02:00:22;;;;;;;2.70;2.10;;;;;;;8.51;100.00;98795.76;105957;1260;73040;-54
2024/04/18 02:02:49;;;;;;;7.10;1.60;;;;;;;8.47;100.00;98795.64;105924;1259;67284;-53
2024/04/18 02:05:35;;;;;;;2.40;2.00;;;;;;;8.45;100.00;98794.33;105783;1263;72086;-55
2024/04/18 02:08:14;;;;;;;2.70;1.60;;;;;;;8.44;100.00;98794.38;108554;1261;60437;-52
2024/04/18 02:10:44;;;;;;;2.20;1.50;;;;;;;8.44;100.00;98788.80;108677;1260;58178;-52
2024/04/18 02:13:34;;;;;;;2.50;1.50;;;;;;;8.47;100.00;98784.04;108579;1259;74065;-51
2024/04/18 02:16:01;;;;;;;4.50;1.80;;;;;;;8.48;100.00;98780.19;108704;1260;64689;-51
2024/04/18 02:18:46;;;;;;;3.00;1.50;;;;;;;8.49;100.00;98774.09;108740;1260;73017;-51
2024/04/18 02:21:13;;;;;;;2.30;2.10;;;;;;;8.51;100.00;98779.33;108612;1261;58814;-52
2024/04/18 02:23:51;;;;;;;5.50;2.80;;;;;;;8.49;100.00;98776.03;108578;1259;59249;-51
2024/04/18 02:26:18;;;;;;;3.70;3.40;;;;;;;8.49;100.00;98776.44;108667;1261;73198;-51
2024/04/18 02:28:44;;;;;;;4.20;3.40;;;;;;;8.45;100.00;98778.05;108694;1260;65370;-53
2024/04/18 02:31:17;;;;;;;3.50;2.20;;;;;;;8.42;100.00;98780.54;108551;1260;72407;-50
2024/04/18 02:33:49;;;;;;;4.00;2.80;;;;;;;8.41;100.00;98774.91;108594;1260;62027;-51
2024/04/18 02:36:17;;;;;;;6.60;3.00;;;;;;;8.40;100.00;98775.14;108618;1263;60974;-51
2024/04/18 02:38:43;;;;;;;3.30;2.10;;;;;;;8.40;100.00;98776.90;108629;1260;73692;-51
2024/04/18 02:41:10;;;;;;;3.50;1.60;;;;;;;8.41;100.00;98779.69;108596;1261;66994;-53
2024/04/18 02:43:50;;;;;;;2.40;2.10;;;;;;;8.44;100.00;98780.63;107702;1263;71809;-53
2024/04/18 02:46:17;;;;;;;3.60;1.90;;;;;;;8.46;100.00;98773.55;107295;1263;60647;-53
2024/04/18 02:49:02;;;;;;;2.70;2.50;;;;;;;8.48;100.00;98773.44;105652;1266;60892;-56
2024/04/18 02:51:29;;;;;;;8.40;3.00;;;;;;;8.50;100.00;98768.67;106288;1260;74091;-52
2024/04/18 02:54:12;;;;;;;7.10;2.90;;;;;;;8.49;100.00;98765.32;105605;1268;66905;-55
2024/04/18 02:56:42;;;;;;;7.40;2.40;;;;;;;8.48;100.00;98759.46;105616;1266;75329;-53
2024/04/18 02:59:10;;;;;;;5.00;1.50;;;;;;;8.48;100.00;98758.60;105602;1265;61378;-52
2024/04/18 03:01:47;;;;;;;5.30;1.90;;;;;;;8.47;100.00;98750.92;105846;1266;60087;-52
2024/04/18 03:04:14;;;;;;;2.30;1.70;;;;;;;8.47;100.00;98746.84;105711;1261;74292;-52
2024/04/18 03:06:41;;;;;;;2.10;1.50;;;;;;;8.47;100.00;98744.89;105626;1260;66932;-55
2024/04/18 03:09:11;;;;;;;2.20;1.40;;;;;;;8.46;100.00;98749.37;105771;1264;71727;-52
2024/04/18 03:11:54;;;;;;;2.70;1.20;;;;;;;8.48;100.00;98752.86;105864;1267;60438;-53
2024/04/18 03:14:42;;;;;;;1.70;1.60;;;;;;;8.47;100.00;98752.72;105612;1264;60512;-53
2024/04/18 03:17:09;;;;;;;2.30;2.00;;;;;;;8.48;100.00;98753.06;105763;1263;74108;-55
2024/04/18 03:19:55;;;;;;;7.00;2.50;;;;;;;8.48;100.00;98752.52;105593;1260;65901;-51
2024/04/18 03:22:24;;;;;;;6.90;2.10;;;;;;;8.48;100.00;98758.42;105623;1263;73676;-53
2024/04/18 03:24:58;;;;;;;1.60;1.30;;;;;;;8.47;100.00;98759.89;105638;1265;60496;-53
2024/04/18 03:27:25;;;;;;;1.60;1.20;;;;;;;8.46;100.00;98757.83;106419;1261;60709;-51
2024/04/18 03:29:52;;;;;;;2.50;1.60;;;;;;;8.44;100.00;98760.77;105643;1260;73320;-52
2024/04/18 03:32:35;;;;;;;3.70;1.80;;;;;;;8.43;100.00;98757.63;105634;1260;68496;-55
2024/04/18 03:35:02;;;;;;;5.30;1.70;;;;;;;8.43;100.00;98754.37;105610;1276;71550;-52
2024/04/18 03:37:29;;;;;;;1.80;1.10;;;;;;;8.46;100.00;98752.25;105565;1266;60524;-52
2024/04/18 03:39:56;;;;;;;2.00;1.80;;;;;;;8.49;100.00;98749.79;105562;1266;60497;-54
2024/04/18 03:42:23;;;;;;;3.70;1.90;;;;;;;8.51;100.00;98756.42;105772;1269;73971;-55
2024/04/18 03:44:50;;;;;;;4.00;2.50;;;;;;;8.52;100.00;98755.14;105633;1261;68642;-53
2024/04/18 03:47:17;;;;;;;2.20;1.90;;;;;;;8.49;100.00;98750.31;105741;1266;73196;-53
2024/04/18 03:50:03;;;;;;;2.90;2.30;;;;;;;8.48;100.00;98748.23;105625;1264;60618;-52
2024/04/18 03:52:38;;;;;;;6.70;1.70;;;;;;;8.46;100.00;98741.86;105651;1263;60398;-53
2024/04/18 03:55:25;;;;;;;4.30;1.40;;;;;;;8.43;100.00;98742.19;105536;1263;73802;-52
2024/04/18 03:57:52;;;;;;;2.30;1.20;;;;;;;8.44;100.00;98742.71;105906;1263;67273;-52
2024/04/18 04:00:38;;;;;;;2.90;1.20;;;;;;;8.46;100.00;98744.03;105701;1261;71856;-52
2024/04/18 04:03:09;;;;;;;2.30;1.60;;;;;;;8.45;100.00;98738.19;105634;1266;60466;-52
2024/04/18 04:05:36;;;;;;;4.20;1.60;;;;;;;8.44;100.00;98743.95;105811;1261;60155;-52
2024/04/18 04:08:05;;;;;;;5.20;2.20;;;;;;;8.42;100.00;98744.75;105605;1263;73859;-53
2024/04/18 04:10:41;;;;;;;3.60;1.40;;;;;;;8.41;100.00;98747.00;107684;1263;68630;-53
2024/04/18 04:13:09;;;;;;;4.10;1.70;;;;;;;8.40;100.00;98741.49;105655;1262;73131;-55
2024/04/18 04:15:49;;;;;;;1.80;1.50;;;;;;;8.39;100.00;98740.70;105604;1265;61621;-50
2024/04/18 04:18:35;;;;;;;4.00;1.70;;;;;;;8.37;100.00;98740.96;105606;1267;60480;-54
2024/04/18 04:21:22;;;;;;;4.70;2.90;;;;;;;8.37;100.00;98736.66;105575;1260;74044;-53
2024/04/18 04:23:49;;;;;;;3.60;2.40;;;;;;;8.38;100.00;98736.08;105845;1266;69644;-52
2024/04/18 04:26:16;;;;;;;4.80;2.70;;;;;;;8.39;100.00;98733.16;105806;1261;72868;-52
2024/04/18 04:28:43;;;;;;;4.30;2.60;;;;;;;8.38;100.00;98732.89;105601;1266;60469;-52
2024/04/18 04:31:10;;;;;;;3.30;2.20;;;;;;;8.34;100.00;98731.60;105641;1266;60471;-52
2024/04/18 04:33:37;;;;;;;3.60;1.80;;;;;;;8.32;100.00;98731.77;106981;1261;74302;-52
2024/04/18 04:36:04;;;;;;;1.50;1.20;;;;;;;8.31;100.00;98732.17;107086;1261;65952;-53
2024/04/18 04:38:31;;;;;;;3.80;1.40;;;;;;;8.32;100.00;98726.76;106156;1260;72811;-53
2024/04/18 04:40:58;;;;;;;2.00;1.30;;;;;;;8.35;100.00;98723.36;107203;1263;60750;-52
2024/04/18 04:43:25;;;;;;;3.00;1.30;;;;;;;8.39;100.00;98721.54;105653;1261;60649;-53
2024/04/18 04:45:55;;;;;;;2.50;1.00;;;;;;;8.41;100.00;98724.82;105661;1264;74829;-53
2024/04/18 04:48:35;;;;;;;3.10;1.70;;;;;;;8.45;100.00;98723.01;106282;1265;65963;-52
2024/04/18 04:51:11;;;;;;;2.00;1.40;;;;;;;8.46;100.00;98722.92;105907;1264;73010;-56
2024/04/18 04:53:37;;;;;;;1.80;1.70;;;;;;;8.48;100.00;98724.44;105595;1271;60524;-52
2024/04/18 04:56:04;;;;;;;2.50;1.10;;;;;;;8.49;100.00;98726.52;105907;1260;60539;-50
2024/04/18 04:58:31;;;;;;;2.80;1.00;;;;;;;8.48;100.00;98733.72;108914;1257;73777;-54
2024/04/18 05:00:58;;;;;;;2.70;1.10;;;;;;;8.47;100.00;98731.28;108954;1257;66865;-52
2024/04/18 05:03:37;;;;;;;2.20;0.90;;;;;;;8.49;100.00;98731.69;108834;1257;72889;-54
2024/04/18 05:06:22;;;;;;;4.10;1.00;;;;;;;8.51;100.00;98726.96;108917;1256;61827;-53
2024/04/18 05:09:08;;;;;;;1.90;1.00;;;;;;;8.54;100.00;98720.89;109029;1257;60621;-53
2024/04/18 05:11:35;;;;;;;1.70;0.90;;;;;;;8.58;100.00;98719.41;108998;1257;72259;-52
2024/04/18 05:14:04;;;;;;;1.20;0.90;;;;;;;8.61;100.00;98722.63;108742;1260;65672;-53
2024/04/18 05:16:49;;;;;;;5.70;1.30;;;;;;;8.61;100.00;98727.44;109053;1258;72219;-52
2024/04/18 05:19:16;;;;;;;3.70;0.80;;;;;;;8.61;100.00;98724.24;108848;1257;60256;-52
2024/04/18 05:21:43;;;;;;;2.50;0.80;;;;;;;8.61;100.00;98728.34;108790;1257;60018;-53
2024/04/18 05:24:28;;;;;;;1.70;0.70;;;;;;;8.61;100.00;98732.81;105952;1270;73901;-51
2024/04/18 05:26:55;;;;;;;2.80;0.80;;;;;;;8.60;100.00;98738.57;105859;1257;65943;-51
2024/04/18 05:32:08;;;;;;;3.00;0.80;;;;;;;8.63;100.00;98740.04;108713;1257;60863;-53
2024/04/18 05:34:36;;;;;;;1.80;0.60;;;;;;;8.62;100.00;98739.71;108789;1260;59651;-53
2024/04/18 05:37:03;;;;;;;0.80;0.70;;;;;;;8.63;100.00;98739.46;108904;1257;74940;-51
2024/04/18 05:39:31;;;;;;;1.60;0.90;;;;;;;8.65;100.00;98741.00;107150;1260;65797;-52
2024/04/18 05:41:58;;;;;;;2.90;1.00;;;;;;;8.62;100.00;98736.13;105937;1260;71402;-52
2024/04/18 05:44:40;;;;;;;1.20;0.70;;;;;;;8.58;100.00;98727.05;105999;1264;60570;-53
2024/04/18 05:47:08;;;;;;;2.00;0.80;;;;;;;8.56;100.00;98719.52;105891;1264;61330;-50
2024/04/18 05:49:35;;;;;;;0.70;0.70;;;;;;;8.56;100.00;98718.95;105874;1269;73742;-50
2024/04/18 05:52:02;;;;;;;1.10;0.70;;;;;;;8.57;100.00;98712.48;106054;1258;68520;-54
2024/04/18 05:54:30;;;;;;;2.70;0.80;;;;;;;8.58;100.00;98708.86;106012;1263;72660;-52
2024/04/18 05:57:05;;;;;;;2.20;0.70;;;;;;;8.58;100.00;98715.96;106159;1263;61592;-54
2024/04/18 05:59:51;;;;;;;2.90;0.80;;;;;;;8.54;100.00;98724.62;105906;1269;62127;-54
2024/04/18 06:02:18;;;;;;;3.60;0.90;;;;;;;8.47;100.00;98730.57;105853;1260;74625;-55
2024/04/18 06:04:45;;;;;;;2.50;0.80;;;;;;;8.43;100.00;98728.30;105920;1264;70306;-51
2024/04/18 06:07:31;;;;;;;1.60;1.00;;;;;;;8.40;100.00;98731.13;105855;1263;71403;-51
2024/04/18 06:09:58;;;;;;;1.30;0.70;;;;;;;8.41;100.00;98734.51;105860;1264;62266;-52
2024/04/18 06:12:25;;;;;;;0.70;0.60;;;;;;;8.43;100.00;98745.61;105891;1263;61995;-54
2024/04/18 06:14:51;;;;;;;1.80;0.80;;;;;;;8.49;100.00;98745.47;105993;1261;74405;-50
2024/04/18 06:17:19;;;;;;;1.60;0.70;;;;;;;8.52;100.00;98746.55;105828;1261;67047;-50
2024/04/18 06:19:52;;;;;;;3.40;0.90;;;;;;;8.57;100.00;98749.33;105805;1258;72807;-52
2024/04/18 06:22:29;;;;;;;1.20;0.70;;;;;;;8.60;100.00;98744.86;106101;1260;62012;-53
2024/04/18 06:25:18;;;;;;;2.10;0.60;;;;;;;8.55;100.00;98743.01;105891;1261;61113;-52
2024/04/18 06:27:45;;;;;;;0.90;0.70;;;;;;;8.52;100.00;98745.13;105808;1257;76772;-52
2024/04/18 06:30:12;;;;;;;0.70;0.60;;;;;;;8.49;100.00;98743.31;105817;1260;68566;-49
2024/04/18 06:32:39;;;;;;;1.50;0.70;;;;;;;8.49;100.00;98748.90;105774;1261;73016;-51
2024/04/18 06:35:10;;;;;;;1.10;0.60;;;;;;;8.49;100.00;98748.34;105942;1262;61288;-50
2024/04/18 06:37:37;;;;;;;1.60;0.70;;;;;;;8.49;100.00;98754.58;106028;1260;61128;-52
2024/04/18 06:40:04;;;;;;;1.70;0.70;;;;;;;8.49;100.00;98755.15;105739;1263;75332;-50
2024/04/18 06:42:31;;;;;;;6.80;0.80;;;;;;;8.45;100.00;98750.90;105925;1269;68185;-54
2024/04/18 06:44:59;;;;;;;3.10;0.70;;;;;;;8.38;100.00;98745.54;105906;1262;72172;-57
2024/04/18 06:47:25;;;;;;;1.60;0.60;;;;;;;8.29;100.00;98745.80;105916;1258;61256;-51
2024/04/18 06:50:08;;;;;;;0.60;0.60;;;;;;;8.23;100.00;98735.79;106120;1260;61103;-52
2024/04/18 06:52:35;;;;;;;1.00;0.60;;;;;;;8.24;100.00;98733.40;105830;1260;74375;-51
2024/04/18 06:55:01;;;;;;;1.00;0.50;;;;;;;8.27;100.00;98734.50;105788;1262;67932;-52
2024/04/18 06:57:40;;;;;;;0.90;0.50;;;;;;;8.27;100.00;98733.79;105916;1257;72523;-50
2024/04/18 07:00:10;;;;;;;1.10;0.60;;;;;;;8.29;100.00;98736.91;105869;1259;61294;-51
2024/04/18 07:02:37;;;;;;;0.90;0.70;;;;;;;8.28;100.00;98741.56;106040;1261;61314;-55
2024/04/18 07:05:23;;;;;;;1.90;0.50;;;;;;;8.29;100.00;98746.38;105933;1260;75649;-52
2024/04/18 07:07:51;;;;;;;4.30;1.60;;;;;;;8.31;100.00;98753.09;105880;1263;68248;-52
2024/04/18 07:10:31;;;;;;;2.30;1.90;;;;;;;8.33;100.00;98752.65;105965;1259;72889;-49
2024/04/18 07:13:19;;;;;;;1.40;1.20;;;;;;;8.32;100.00;98755.73;105780;1263;62251;-52
2024/04/18 07:16:02;;;;;;;6.80;6.20;;;;;;;8.31;100.00;98751.80;105737;1270;61769;-50
2024/04/18 07:18:48;;;;;;;7.80;7.10;;;;;;;8.29;100.00;98753.52;105829;1260;74493;-53
2024/04/18 07:21:15;;;;;;;2.20;1.30;;;;;;;8.24;100.00;98753.60;105829;1270;68498;-54
2024/04/18 07:23:42;;;;;;;2.10;1.20;;;;;;;8.22;100.00;98755.86;105946;1264;72358;-51
2024/04/18 07:26:09;;;;;;;1.70;1.60;;;;;;;8.19;100.00;98752.83;105914;1258;62140;-53
2024/04/18 07:28:36;;;;;;;8.10;7.70;;;;;;;8.14;100.00;98760.23;105905;1258;61555;-49
2024/04/18 07:31:03;;;;;;;2.90;2.70;;;;;;;8.13;100.00;98761.35;105885;1261;74625;-54
2024/04/18 07:33:33;;;;;;;26.70;24.40;;;;;;;8.15;100.00;98760.04;106010;1269;67878;-51
2024/04/18 07:36:22;;;;;;;4.10;3.70;;;;;;;8.17;100.00;98761.88;105722;1263;71507;-51
2024/04/18 07:38:50;;;;;;;3.30;3.00;;;;;;;8.17;100.00;98763.80;106081;1262;61304;-53
2024/04/18 07:41:19;;;;;;;4.70;4.30;;;;;;;8.13;100.00;98763.88;108832;1260;59251;-56
2024/04/18 07:43:46;;;;;;;1.40;1.30;;;;;;;8.09;100.00;98761.05;108886;1257;74558;-52
2024/04/18 07:46:13;;;;;;;2.60;1.60;;;;;;;8.06;100.00;98763.20;108902;1257;67027;-53
2024/04/18 07:48:40;;;;;;;0.70;0.40;;;;;;;7.98;100.00;98762.70;108770;1257;71399;-52
2024/04/18 07:51:07;;;;;;;0.90;0.50;;;;;;;7.94;100.00;98764.88;106272;1269;61116;-49
2024/04/18 07:53:34;;;;;;;0.70;0.60;;;;;;;7.96;100.00;98764.08;105878;1269;61112;-51
2024/04/18 07:56:04;;;;;;;0.90;0.50;;;;;;;7.98;100.00;98764.13;105857;1271;74386;-51
2024/04/18 07:58:31;;;;;;;2.00;0.40;;;;;;;8.01;100.00;98759.52;108850;1260;66000;-50
2024/04/18 08:00:59;;;;;;;0.50;0.40;;;;;;;8.07;100.00;98757.92;108865;1257;71589;-51
2024/04/18 08:03:28;;;;;;;0.60;0.30;;;;;;;8.11;100.00;98752.17;108889;1256;60060;-53
2024/04/18 08:05:58;;;;;;;0.90;0.50;;;;;;;8.11;100.00;98746.48;108994;1256;61115;-55
2024/04/18 08:08:30;;;;;;;0.60;0.50;;;;;;;8.12;100.00;98748.18;108717;1257;74945;-51
2024/04/18 08:11:03;;;;;;;0.80;0.50;;;;;;;8.14;100.00;98747.55;108836;1257;64690;-51
2024/04/18 08:13:50;;;;;;;1.50;0.50;;;;;;;8.11;100.00;98747.52;108858;1261;71421;-56
2024/04/18 08:16:23;;;;;;;0.60;0.40;;;;;;;8.08;100.00;98744.83;108841;1256;60740;-54
2024/04/18 08:18:50;;;;;;;1.20;0.50;;;;;;;8.04;100.00;98736.65;108755;1257;59243;-50
2024/04/18 08:21:17;;;;;;;1.60;0.50;;;;;;;8.03;100.00;98734.05;105875;1260;75632;-53
2024/04/18 08:23:51;;;;;;;0.80;0.50;;;;;;;8.04;100.00;98736.66;108884;1257;66806;-52
2024/04/18 08:26:18;;;;;;;1.20;0.50;;;;;;;8.08;100.00;98741.80;108928;1257;71642;-54
2024/04/18 08:28:44;;;;;;;1.20;0.50;;;;;;;8.10;100.00;98746.67;108988;1257;59168;-51
2024/04/18 08:31:11;;;;;;;0.90;0.60;;;;;;;8.10;100.00;98743.67;108879;1257;60050;-52
2024/04/18 08:33:38;;;;;;;2.30;0.40;;;;;;;8.09;100.00;98744.40;106852;1260;74957;-53
2024/04/18 08:36:08;;;;;;;1.30;0.50;;;;;;;8.11;100.00;98743.44;106697;1261;68397;-52
2024/04/18 08:38:36;;;;;;;0.90;0.50;;;;;;;8.10;100.00;98736.72;105863;1260;71263;-51
2024/04/18 08:41:06;;;;;;;1.50;0.40;;;;;;;8.05;100.00;98730.36;105864;1260;62953;-51
2024/04/18 08:43:33;;;;;;;2.70;0.50;;;;;;;8.00;100.00;98732.20;106311;1257;61230;-52
2024/04/18 08:46:00;;;;;;;0.70;0.40;;;;;;;7.98;100.00;98730.17;106070;1256;73817;-51
2024/04/18 08:48:27;;;;;;;2.00;0.50;;;;;;;7.99;100.00;98728.56;106199;1263;67244;-51
2024/04/18 08:50:54;;;;;;;1.50;0.40;;;;;;;7.98;100.00;98725.54;105868;1257;71791;-51
2024/04/18 08:53:21;;;;;;;0.70;0.40;;;;;;;7.98;100.00;98724.83;105772;1261;61263;-52
2024/04/18 08:55:49;;;;;;;4.00;0.40;;;;;;;7.98;100.00;98724.46;105886;1269;61198;-49
2024/04/18 08:58:16;;;;;;;0.90;0.40;;;;;;;7.97;100.00;98718.09;105901;1260;75245;-51
2024/04/18 09:00:46;;;;;;;1.20;0.40;;;;;;;7.98;100.00;98710.75;105838;1264;70003;-51
2024/04/18 09:03:12;;;;;;;1.20;0.40;;;;;;;8.00;100.00;98700.96;106009;1260;72623;-52
2024/04/18 09:05:41;;;;;;;1.20;0.50;;;;;;;8.02;100.00;98694.45;106064;1257;61525;-50
2024/04/18 09:08:09;;;;;;;3.00;0.90;;;;;;;8.02;100.00;98683.38;106505;1258;61224;-50
2024/04/18 09:10:36;;;;;;;8.20;5.10;;;;;;;8.04;100.00;98678.25;106014;1261;74698;-53
2024/04/18 09:13:03;;;;;;;3.30;1.50;;;;;;;8.05;100.00;98668.70;106250;1260;67976;-51
2024/04/18 09:15:33;;;;;;;19.40;14.70;;;;;;;8.07;100.00;98672.73;105867;1260;73514;-52
2024/04/18 09:18:07;;;;;;;10.30;8.00;;;;;;;8.10;100.00;98675.19;105892;1261;61934;-51
2024/04/18 09:20:35;;;;;;;2.30;1.30;;;;;;;8.13;100.00;98672.55;105923;1260;62030;-52
2024/04/18 09:23:02;;;;;;;0.80;0.50;;;;;;;8.16;100.00;98669.19;105941;1258;73236;-53
2024/04/18 09:25:30;;;;;;;1.50;0.50;;;;;;;8.17;100.00;98677.31;106546;1258;64681;-53
2024/04/18 09:28:00;;;;;;;1.00;0.50;;;;;;;8.15;100.00;98683.70;105873;1259;73698;-51
2024/04/18 09:30:26;;;;;;;0.80;0.40;;;;;;;8.12;100.00;98687.09;105897;1273;61744;-55
2024/04/18 09:32:54;;;;;;;1.70;0.60;;;;;;;8.08;100.00;98681.61;106294;1270;61343;-52
2024/04/18 09:35:20;;;;;;;1.00;0.50;;;;;;;8.03;100.00;98664.19;106153;1257;74613;-53
2024/04/18 09:37:47;;;;;;;0.40;0.40;;;;;;;7.99;100.00;98657.25;105844;1270;65737;-52
2024/04/18 09:40:23;;;;;;;1.10;0.40;;;;;;;7.98;100.00;98656.96;105821;1258;72611;-55
2024/04/18 09:42:53;;;;;;;2.20;0.90;;;;;;;7.96;100.00;98655.09;105868;1258;61256;-50
2024/04/18 09:45:20;;;;;;;3.60;3.50;;;;;;;7.93;100.00;98652.02;106166;1260;61298;-55
2024/04/18 09:47:47;;;;;;;3.70;0.60;;;;;;;7.90;100.00;98650.23;106017;1260;74200;-55
2024/04/18 09:50:14;;;;;;;0.70;0.30;;;;;;;7.87;100.00;98644.00;106088;1260;66517;-52
2024/04/18 09:52:41;;;;;;;0.40;0.30;;;;;;;7.82;100.00;98637.98;106163;1267;72124;-53
2024/04/18 09:55:08;;;;;;;1.60;0.40;;;;;;;7.76;100.00;98635.67;105895;1260;61243;-53
2024/04/18 09:57:35;;;;;;;0.50;0.40;;;;;;;7.72;100.00;98636.08;106326;1260;61245;-53
2024/04/18 10:00:03;;;;;;;2.00;0.40;;;;;;;7.70;100.00;98633.14;105887;1261;73844;-51
2024/04/18 10:02:37;;;;;;;0.30;0.30;;;;;;;7.68;100.00;98640.54;105943;1269;65907;-53
2024/04/18 10:05:04;;;;;;;0.40;0.30;;;;;;;7.68;100.00;98645.21;105862;1272;76991;-52
2024/04/18 10:07:31;;;;;;;0.40;0.30;;;;;;;7.65;100.00;98644.30;106223;1268;62411;-52
2024/04/18 10:09:58;;;;;;;1.00;0.40;;;;;;;7.60;100.00;98634.21;106480;1260;61442;-54
2024/04/18 10:12:32;;;;;;;2.80;0.40;;;;;;;7.59;100.00;98633.88;106244;1257;75290;-51
2024/04/18 10:14:59;;;;;;;0.60;0.40;;;;;;;7.61;100.00;98629.16;106049;1257;67415;-52
2024/04/18 10:17:30;;;;;;;0.70;0.40;;;;;;;7.64;100.00;98628.80;106027;1257;72374;-52
2024/04/18 10:20:05;;;;;;;1.30;0.40;;;;;;;7.68;100.00;98627.52;106631;1257;62503;-53
2024/04/18 10:22:34;;;;;;;;;;;;;;;7.69;100.00;98620.87;106196;1260;61305;-53
2024/04/18 10:25:18;;;;;;;0.50;0.30;;;;;;;7.71;100.00;98623.64;105876;1261;75328;-53
2024/04/18 10:27:45;;;;;;;1.00;0.60;;;;;;;7.72;100.00;98620.38;106058;1257;66759;-54
2024/04/18 10:30:18;;;;;;;1.40;0.60;;;;;;;7.73;100.00;98625.64;106142;1261;71842;-53
2024/04/18 10:32:45;;;;;;;0.80;0.50;;;;;;;7.73;100.00;98622.30;106122;1254;61209;-53
2024/04/18 10:35:14;;;;;;;0.60;0.40;;;;;;;7.71;100.00;98627.36;105982;1260;61228;-56
2024/04/18 10:37:49;;;;;;;2.00;0.50;;;;;;;7.67;100.00;98625.27;106137;1258;72829;-53
2024/04/18 10:40:16;;;;;;;1.00;0.50;;;;;;;7.63;100.00;98625.13;106052;1260;67951;-56
2024/04/18 10:42:43;;;;;;;0.40;0.30;;;;;;;7.62;100.00;98632.33;108861;1254;72701;-57
2024/04/18 10:45:10;;;;;;;0.70;0.30;;;;;;;7.60;100.00;98631.14;106668;1257;61327;-52
2024/04/18 10:47:38;;;;;;;0.60;0.40;;;;;;;7.60;100.00;98629.20;106061;1260;62742;-51
2024/04/18 10:50:05;;;;;;;0.90;0.40;;;;;;;7.62;100.00;98631.97;108921;1257;73241;-51
2024/04/18 10:52:32;;;;;;;2.80;0.80;;;;;;;7.66;100.00;98648.71;108957;1257;65866;-52
2024/04/18 10:54:59;;;;;;;2.60;0.70;;;;;;;7.67;100.00;98655.07;108976;1257;72743;-51
2024/04/18 10:57:26;;;;;;;0.60;0.50;;;;;;;7.64;100.00;98655.63;108990;1257;60743;-53
2024/04/18 10:59:53;;;;;;;0.80;0.50;;;;;;;7.60;100.00;98654.89;108924;1256;60345;-56
2024/04/18 11:02:19;;;;;;;0.70;0.40;;;;;;;7.59;100.00;98650.15;109000;1257;74712;-53
2024/04/18 11:04:46;;;;;;;1.30;0.50;;;;;;;7.56;100.00;98648.36;108707;1257;68987;-54
2024/04/18 11:07:13;;;;;;;0.70;0.20;;;;;;;7.57;100.00;98646.84;108856;1256;71498;-55
2024/04/18 11:09:43;;;;;;;0.50;0.30;;;;;;;7.59;100.00;98641.92;108852;1257;59877;-53
2024/04/18 11:12:11;;;;;;;1.30;0.40;;;;;;;7.62;100.00;98640.73;108969;1257;59218;-56
2024/04/18 11:14:37;;;;;;;1.40;0.50;;;;;;;7.62;100.00;98636.45;108872;1257;75300;-54
2024/04/18 11:17:04;;;;;;;1.10;0.60;;;;;;;7.61;100.00;98632.54;109003;1257;64774;-51
2024/04/18 11:19:31;;;;;;;1.00;0.70;;;;;;;7.62;100.00;98628.20;108928;1254;71879;-56
2024/04/18 11:21:59;;;;;;;1.70;0.80;;;;;;;7.63;100.00;98627.30;108945;1254;61937;-54
2024/04/18 11:24:27;;;;;;;0.70;0.60;;;;;;;7.63;100.00;98614.79;108596;1256;60664;-56
2024/04/18 11:26:54;;;;;;;1.70;0.70;;;;;;;7.63;100.00;98615.86;108827;1256;74401;-52
2024/04/18 11:29:29;;;;;;;2.90;0.80;;;;;;;7.65;100.00;98622.02;109065;1255;68158;-54
2024/04/18 11:32:07;;;;;;;1.40;0.60;;;;;;;7.69;100.00;98629.78;106132;1260;70464;-56
2024/04/18 11:34:35;;;;;;;0.50;0.50;;;;;;;7.72;100.00;98634.46;106055;1259;61249;-56
2024/04/18 11:37:04;;;;;;;0.60;0.50;;;;;;;7.75;100.00;98639.81;107604;1254;61237;-53
2024/04/18 11:39:31;;;;;;;0.60;0.40;;;;;;;7.77;100.00;98638.13;106663;1257;76972;-55
2024/04/18 11:41:58;;;;;;;0.80;0.40;;;;;;;7.78;100.00;98642.68;106052;1257;66758;-56
2024/04/18 11:44:25;;;;;;;0.40;0.40;;;;;;;7.82;100.00;98641.22;107858;1260;73086;-56
2024/04/18 11:46:54;;;;;;;0.40;0.30;;;;;;;7.86;100.00;98641.52;106517;1257;61125;-56